Grand Teton National Park, WY

2:23 AM MDT on September 23, 2014 (GMT -0600)
Dubois Muni, Dubois, WY | Change Station
CLOSE
Current Station
Airport
Location: Dubois Muni, Dubois, WY,
Elevation: 7297 ft
Nearby Weather Stations

Elev 7297 ft 43.55 °N, 109.69 °W | Updated 8 minutes ago

Mostly Cloudy
Mostly Cloudy
50 °F
Feels Like 50 °F
N
8
Wind Variable Wind from NW

Today
High -- | Low -- °F
--% Chance of Precip.
Yesterday
High -- | Low -- °F
Precip. -- in
7:09 AM 7:16 PM
Waning Crescent, 1% visible
Pressure 30.21 in
Visibility 10.0 miles
Clouds Scattered Clouds 4800 ft
Overcast 6500 ft
Dew Point 41 °F
Humidity 71%
Rainfall 0.00 in
Snow Depth Not available.
UV 0 out of 12
Pollen 3.80 out of 12
Air Quality Not available.
Flu Activity Not available.
METAR KDUB 230815Z AUTO 32007KT 10SM SCT048 OVC065 10/05 A3021 RMK AO2

More Conditions Fewer Conditions

Pressure 30.21 in
Visibility 10.0 miles
Clouds Scattered Clouds 4800 ft
Overcast 6500 ft
Dew Point 41 °F
Humidity 71%
Rainfall 0.00 in
Snow Depth Not available.
UV 0 out of 12
Pollen 3.80 out of 12
Air Quality Not available.
Flu Activity Not available.
METAR KDUB 230815Z AUTO 32007KT 10SM SCT048 OVC065 10/05 A3021 RMK AO2

More Conditions Fewer Conditions

10-Day Weather Forecast

Almanac

Astronomy

Sep. 23, 2014 Rise Set
Actual Time 7:09 AM MDT 7:16 PM MDT
Civil Twilight 6:40 AM MDT 7:45 PM MDT
Nautical Twilight 6:07 AM MDT 8:19 PM MDT
Astronomical Twilight 5:32 AM MDT 8:53 PM MDT
Moon 6:37 AM MDT 6:56 PM MDT
Length of Visible Light 13h 04m
Length of Day
12h 07m
Tomorrow will be 3m 0s shorter.
Waning Crescent, 1% of the Moon is Illuminated
Today
Waning Crescent
Sep 24
New
Oct 1
First Quarter
Oct 8
Full
Oct 15
Last Quarter

Today's Extremes

State Highs State Lows

Community

WunderPhotos

Upload Photos

1,755,632 photos uploaded!

Nearby

Snow Depth

Station Depth Elevation
Crow Creek 0 in 8330 ft
Base Camp 0 in 7030 ft
New Fork Lake 0 in 8340 ft
Two Ocean Plateau 0 in 9240 ft
Kelley R.S. 0 in 8180 ft

Earthquake Activity

City Distance Mag. Time & Date
No recent earthquake activity has been reported nearby.
Minimum magnitude displayed is 2.5.

Coastal Water Temperatures

Place Temperature
No Stations Reporting

Nearby Weather Stations